sensor_id;sensor_type;location;lat;lon;timestamp;P1;P2;P0
77699;PMS5003;66867;42.658;23.320;2023-06-01T00:00:01;21;20;
77699;PMS5003;66867;42.658;23.320;2023-06-01T00:01:00;20;20;
77699;PMS5003;66867;42.658;23.320;2023-06-01T00:02:00;25;24;
77699;PMS5003;66867;42.658;23.320;2023-06-01T00:03:00;20;20;
77699;PMS5003;66867;42.658;23.320;2023-06-01T00:04:00;20;20;
77699;PMS5003;66867;42.658;23.320;2023-06-01T00:05:00;23;22;
77699;PMS5003;66867;42.658;23.320;2023-06-01T00:06:00;24;23;
77699;PMS5003;66867;42.658;23.320;2023-06-01T00:07:00;21;19;
77699;PMS5003;66867;42.658;23.320;2023-06-01T00:08:00;23;22;
77699;PMS5003;66867;42.658;23.320;2023-06-01T00:09:00;21;21;
77699;PMS5003;66867;42.658;23.320;2023-06-01T00:10:00;23;23;
77699;PMS5003;66867;42.658;23.320;2023-06-01T00:11:00;19;19;
77699;PMS5003;66867;42.658;23.320;2023-06-01T00:12:00;23;23;
77699;PMS5003;66867;42.658;23.320;2023-06-01T00:13:00;23;23;
77699;PMS5003;66867;42.658;23.320;2023-06-01T00:14:00;23;21;
77699;PMS5003;66867;42.658;23.320;2023-06-01T00:15:00;23;22;
77699;PMS5003;66867;42.658;23.320;2023-06-01T00:16:00;26;26;
77699;PMS5003;66867;42.658;23.320;2023-06-01T00:17:00;24;23;
77699;PMS5003;66867;42.658;23.320;2023-06-01T00:18:00;22;22;
77699;PMS5003;66867;42.658;23.320;2023-06-01T00:19:00;20;20;
77699;PMS5003;66867;42.658;23.320;2023-06-01T00:20:00;20;20;
77699;PMS5003;66867;42.658;23.320;2023-06-01T00:21:00;23;22;
77699;PMS5003;66867;42.658;23.320;2023-06-01T00:22:00;26;24;
77699;PMS5003;66867;42.658;23.320;2023-06-01T00:23:00;21;21;
77699;PMS5003;66867;42.658;23.320;2023-06-01T00:24:00;27;27;
77699;PMS5003;66867;42.658;23.320;2023-06-01T00:25:00;26;24;
77699;PMS5003;66867;42.658;23.320;2023-06-01T00:26:01;27;27;
77699;PMS5003;66867;42.658;23.320;2023-06-01T00:27:00;22;22;
77699;PMS5003;66867;42.658;23.320;2023-06-01T00:28:00;23;22;
77699;PMS5003;66867;42.658;23.320;2023-06-01T00:29:00;22;22;
77699;PMS5003;66867;42.658;23.320;2023-06-01T00:30:00;23;23;
77699;PMS5003;66867;42.658;23.320;2023-06-01T00:31:00;20;20;
77699;PMS5003;66867;42.658;23.320;2023-06-01T00:32:00;24;24;
77699;PMS5003;66867;42.658;23.320;2023-06-01T00:33:00;23;23;
77699;PMS5003;66867;42.658;23.320;2023-06-01T00:34:00;25;25;
77699;PMS5003;66867;42.658;23.320;2023-06-01T00:35:00;24;22;
77699;PMS5003;66867;42.658;23.320;2023-06-01T00:36:01;24;24;
77699;PMS5003;66867;42.658;23.320;2023-06-01T00:37:00;24;23;
77699;PMS5003;66867;42.658;23.320;2023-06-01T00:38:00;21;21;
77699;PMS5003;66867;42.658;23.320;2023-06-01T00:39:00;24;22;
77699;PMS5003;66867;42.658;23.320;2023-06-01T00:40:00;20;19;
77699;PMS5003;66867;42.658;23.320;2023-06-01T00:41:00;23;23;
77699;PMS5003;66867;42.658;23.320;2023-06-01T00:42:00;22;21;
77699;PMS5003;66867;42.658;23.320;2023-06-01T00:43:00;24;24;
77699;PMS5003;66867;42.658;23.320;2023-06-01T00:44:00;21;21;
77699;PMS5003;66867;42.658;23.320;2023-06-01T00:45:00;23;22;
77699;PMS5003;66867;42.658;23.320;2023-06-01T00:46:00;24;24;
77699;PMS5003;66867;42.658;23.320;2023-06-01T00:47:00;24;23;
77699;PMS5003;66867;42.658;23.320;2023-06-01T00:48:01;22;21;
77699;PMS5003;66867;42.658;23.320;2023-06-01T00:49:00;22;22;
77699;PMS5003;66867;42.658;23.320;2023-06-01T00:50:00;23;23;
77699;PMS5003;66867;42.658;23.320;2023-06-01T00:51:00;24;23;
77699;PMS5003;66867;42.658;23.320;2023-06-01T00:52:00;21;21;
77699;PMS5003;66867;42.658;23.320;2023-06-01T00:53:02;23;22;
77699;PMS5003;66867;42.658;23.320;2023-06-01T00:54:00;21;21;
77699;PMS5003;66867;42.658;23.320;2023-06-01T00:55:00;21;20;
77699;PMS5003;66867;42.658;23.320;2023-06-01T00:56:00;19;19;
77699;PMS5003;66867;42.658;23.320;2023-06-01T00:57:01;26;25;
77699;PMS5003;66867;42.658;23.320;2023-06-01T00:58:01;24;23;
77699;PMS5003;66867;42.658;23.320;2023-06-01T00:59:00;21;21;
77699;PMS5003;66867;42.658;23.320;2023-06-01T01:00:02;23;22;
77699;PMS5003;66867;42.658;23.320;2023-06-01T01:01:00;23;23;
77699;PMS5003;66867;42.658;23.320;2023-06-01T01:02:00;25;25;
77699;PMS5003;66867;42.658;23.320;2023-06-01T01:03:00;22;22;
77699;PMS5003;66867;42.658;23.320;2023-06-01T01:04:00;21;21;
77699;PMS5003;66867;42.658;23.320;2023-06-01T01:05:00;21;21;
77699;PMS5003;66867;42.658;23.320;2023-06-01T01:06:07;23;22;
77699;PMS5003;66867;42.658;23.320;2023-06-01T01:07:15;22;21;
77699;PMS5003;66867;42.658;23.320;2023-06-01T01:08:18;21;21;
77699;PMS5003;66867;42.658;23.320;2023-06-01T01:09:21;21;21;
77699;PMS5003;66867;42.658;23.320;2023-06-01T01:11:15;22;22;
77699;PMS5003;66867;42.658;23.320;2023-06-01T01:12:04;20;20;
77699;PMS5003;66867;42.658;23.320;2023-06-01T01:13:06;18;18;
77699;PMS5003;66867;42.658;23.320;2023-06-01T01:14:09;23;22;
77699;PMS5003;66867;42.658;23.320;2023-06-01T01:15:06;21;21;
77699;PMS5003;66867;42.658;23.320;2023-06-01T01:16:11;22;21;
77699;PMS5003;66867;42.658;23.320;2023-06-01T01:17:05;23;23;
77699;PMS5003;66867;42.658;23.320;2023-06-01T01:18:08;23;20;
77699;PMS5003;66867;42.658;23.320;2023-06-01T01:20:06;20;20;
77699;PMS5003;66867;42.658;23.320;2023-06-01T01:21:02;21;21;
77699;PMS5003;66867;42.658;23.320;2023-06-01T01:28:29;23;23;
77699;PMS5003;66867;42.658;23.320;2023-06-01T01:29:03;21;21;
77699;PMS5003;66867;42.658;23.320;2023-06-01T01:30:02;25;25;
77699;PMS5003;66867;42.658;23.320;2023-06-01T01:31:02;19;19;
77699;PMS5003;66867;42.658;23.320;2023-06-01T01:32:03;20;20;
77699;PMS5003;66867;42.658;23.320;2023-06-01T01:33:01;23;23;
77699;PMS5003;66867;42.658;23.320;2023-06-01T01:34:02;22;22;
77699;PMS5003;66867;42.658;23.320;2023-06-01T01:35:01;23;22;
77699;PMS5003;66867;42.658;23.320;2023-06-01T01:36:01;20;20;
77699;PMS5003;66867;42.658;23.320;2023-06-01T01:37:01;21;21;
77699;PMS5003;66867;42.658;23.320;2023-06-01T01:38:00;22;21;
77699;PMS5003;66867;42.658;23.320;2023-06-01T01:39:00;20;20;
77699;PMS5003;66867;42.658;23.320;2023-06-01T01:40:00;22;22;
77699;PMS5003;66867;42.658;23.320;2023-06-01T01:41:01;25;24;
77699;PMS5003;66867;42.658;23.320;2023-06-01T01:42:00;24;24;
77699;PMS5003;66867;42.658;23.320;2023-06-01T01:43:01;19;19;
77699;PMS5003;66867;42.658;23.320;2023-06-01T01:44:01;24;24;
77699;PMS5003;66867;42.658;23.320;2023-06-01T01:45:00;21;21;
77699;PMS5003;66867;42.658;23.320;2023-06-01T01:47:14;22;22;
77699;PMS5003;66867;42.658;23.320;2023-06-01T01:48:09;28;28;
77699;PMS5003;66867;42.658;23.320;2023-06-01T01:49:05;22;21;
77699;PMS5003;66867;42.658;23.320;2023-06-01T01:50:05;21;21;
77699;PMS5003;66867;42.658;23.320;2023-06-01T01:51:03;24;24;
77699;PMS5003;66867;42.658;23.320;2023-06-01T01:53:01;23;23;
77699;PMS5003;66867;42.658;23.320;2023-06-01T01:54:01;23;23;
77699;PMS5003;66867;42.658;23.320;2023-06-01T01:55:01;24;24;
77699;PMS5003;66867;42.658;23.320;2023-06-01T01:56:01;26;26;
77699;PMS5003;66867;42.658;23.320;2023-06-01T01:57:01;23;23;
77699;PMS5003;66867;42.658;23.320;2023-06-01T01:58:01;23;22;
77699;PMS5003;66867;42.658;23.320;2023-06-01T01:59:00;24;23;
77699;PMS5003;66867;42.658;23.320;2023-06-01T02:00:02;24;24;
77699;PMS5003;66867;42.658;23.320;2023-06-01T02:01:01;27;26;
77699;PMS5003;66867;42.658;23.320;2023-06-01T02:02:00;26;25;
77699;PMS5003;66867;42.658;23.320;2023-06-01T02:03:00;23;22;
77699;PMS5003;66867;42.658;23.320;2023-06-01T02:04:02;26;25;
77699;PMS5003;66867;42.658;23.320;2023-06-01T02:05:00;24;24;
77699;PMS5003;66867;42.658;23.320;2023-06-01T02:06:00;23;23;
77699;PMS5003;66867;42.658;23.320;2023-06-01T02:07:00;24;24;
77699;PMS5003;66867;42.658;23.320;2023-06-01T02:08:00;25;24;
77699;PMS5003;66867;42.658;23.320;2023-06-01T02:09:00;22;22;
77699;PMS5003;66867;42.658;23.320;2023-06-01T02:10:00;26;25;
77699;PMS5003;66867;42.658;23.320;2023-06-01T02:11:00;19;19;
77699;PMS5003;66867;42.658;23.320;2023-06-01T02:12:00;26;25;
77699;PMS5003;66867;42.658;23.320;2023-06-01T02:13:00;21;21;
77699;PMS5003;66867;42.658;23.320;2023-06-01T02:14:00;25;24;
77699;PMS5003;66867;42.658;23.320;2023-06-01T02:15:00;24;23;
77699;PMS5003;66867;42.658;23.320;2023-06-01T02:16:00;24;24;
77699;PMS5003;66867;42.658;23.320;2023-06-01T02:17:00;21;21;
77699;PMS5003;66867;42.658;23.320;2023-06-01T02:18:00;24;24;
77699;PMS5003;66867;42.658;23.320;2023-06-01T02:19:00;24;22;
77699;PMS5003;66867;42.658;23.320;2023-06-01T02:20:01;22;22;
77699;PMS5003;66867;42.658;23.320;2023-06-01T02:21:00;24;22;
77699;PMS5003;66867;42.658;23.320;2023-06-01T02:22:00;19;19;
77699;PMS5003;66867;42.658;23.320;2023-06-01T02:23:00;25;23;
77699;PMS5003;66867;42.658;23.320;2023-06-01T02:24:00;23;23;
77699;PMS5003;66867;42.658;23.320;2023-06-01T02:25:00;19;19;
77699;PMS5003;66867;42.658;23.320;2023-06-01T02:26:00;24;24;
77699;PMS5003;66867;42.658;23.320;2023-06-01T02:27:00;26;26;
77699;PMS5003;66867;42.658;23.320;2023-06-01T02:28:00;22;22;
77699;PMS5003;66867;42.658;23.320;2023-06-01T02:29:01;23;23;
77699;PMS5003;66867;42.658;23.320;2023-06-01T02:30:00;26;25;
77699;PMS5003;66867;42.658;23.320;2023-06-01T02:31:00;24;23;
77699;PMS5003;66867;42.658;23.320;2023-06-01T02:32:00;24;24;
77699;PMS5003;66867;42.658;23.320;2023-06-01T02:33:00;22;22;
77699;PMS5003;66867;42.658;23.320;2023-06-01T02:34:01;23;23;
77699;PMS5003;66867;42.658;23.320;2023-06-01T02:35:00;25;25;
77699;PMS5003;66867;42.658;23.320;2023-06-01T02:36:00;26;26;
77699;PMS5003;66867;42.658;23.320;2023-06-01T02:37:00;25;23;
77699;PMS5003;66867;42.658;23.320;2023-06-01T02:38:00;25;25;
77699;PMS5003;66867;42.658;23.320;2023-06-01T02:39:00;24;24;
77699;PMS5003;66867;42.658;23.320;2023-06-01T02:40:00;25;24;
77699;PMS5003;66867;42.658;23.320;2023-06-01T02:41:00;29;27;
77699;PMS5003;66867;42.658;23.320;2023-06-01T02:42:00;33;31;
77699;PMS5003;66867;42.658;23.320;2023-06-01T02:43:00;26;24;
77699;PMS5003;66867;42.658;23.320;2023-06-01T02:44:00;29;27;
77699;PMS5003;66867;42.658;23.320;2023-06-01T02:45:00;22;22;
77699;PMS5003;66867;42.658;23.320;2023-06-01T02:46:01;25;25;
77699;PMS5003;66867;42.658;23.320;2023-06-01T02:47:00;22;22;
77699;PMS5003;66867;42.658;23.320;2023-06-01T02:48:00;28;27;
77699;PMS5003;66867;42.658;23.320;2023-06-01T02:49:00;24;24;
77699;PMS5003;66867;42.658;23.320;2023-06-01T02:50:00;35;32;
77699;PMS5003;66867;42.658;23.320;2023-06-01T02:51:00;34;32;
77699;PMS5003;66867;42.658;23.320;2023-06-01T02:52:00;40;36;
77699;PMS5003;66867;42.658;23.320;2023-06-01T02:53:00;33;32;
77699;PMS5003;66867;42.658;23.320;2023-06-01T02:54:00;26;26;
77699;PMS5003;66867;42.658;23.320;2023-06-01T02:55:00;29;28;
77699;PMS5003;66867;42.658;23.320;2023-06-01T02:56:00;32;30;
77699;PMS5003;66867;42.658;23.320;2023-06-01T02:57:00;30;30;
77699;PMS5003;66867;42.658;23.320;2023-06-01T02:58:00;35;32;
77699;PMS5003;66867;42.658;23.320;2023-06-01T02:59:00;45;37;
77699;PMS5003;66867;42.658;23.320;2023-06-01T03:00:00;36;33;
77699;PMS5003;66867;42.658;23.320;2023-06-01T03:01:00;36;33;
77699;PMS5003;66867;42.658;23.320;2023-06-01T03:02:00;36;33;
77699;PMS5003;66867;42.658;23.320;2023-06-01T03:03:00;32;30;
77699;PMS5003;66867;42.658;23.320;2023-06-01T03:04:01;30;28;
77699;PMS5003;66867;42.658;23.320;2023-06-01T03:05:00;27;27;
77699;PMS5003;66867;42.658;23.320;2023-06-01T03:06:00;33;29;
77699;PMS5003;66867;42.658;23.320;2023-06-01T03:07:00;29;28;
77699;PMS5003;66867;42.658;23.320;2023-06-01T03:08:01;28;27;
77699;PMS5003;66867;42.658;23.320;2023-06-01T03:09:00;29;29;
77699;PMS5003;66867;42.658;23.320;2023-06-01T03:10:00;28;28;
77699;PMS5003;66867;42.658;23.320;2023-06-01T03:11:00;35;30;
77699;PMS5003;66867;42.658;23.320;2023-06-01T03:12:00;30;29;
77699;PMS5003;66867;42.658;23.320;2023-06-01T03:13:00;33;30;
77699;PMS5003;66867;42.658;23.320;2023-06-01T03:14:00;28;28;
77699;PMS5003;66867;42.658;23.320;2023-06-01T03:15:00;31;29;
77699;PMS5003;66867;42.658;23.320;2023-06-01T03:16:00;28;28;
77699;PMS5003;66867;42.658;23.320;2023-06-01T03:17:00;30;30;
77699;PMS5003;66867;42.658;23.320;2023-06-01T03:18:00;37;32;
77699;PMS5003;66867;42.658;23.320;2023-06-01T03:19:00;32;29;
77699;PMS5003;66867;42.658;23.320;2023-06-01T03:20:00;28;28;
77699;PMS5003;66867;42.658;23.320;2023-06-01T03:21:00;36;33;
77699;PMS5003;66867;42.658;23.320;2023-06-01T03:22:00;34;30;
77699;PMS5003;66867;42.658;23.320;2023-06-01T03:23:00;35;32;
77699;PMS5003;66867;42.658;23.320;2023-06-01T03:24:00;36;30;
77699;PMS5003;66867;42.658;23.320;2023-06-01T03:25:00;30;29;
77699;PMS5003;66867;42.658;23.320;2023-06-01T03:26:00;29;29;
77699;PMS5003;66867;42.658;23.320;2023-06-01T03:27:00;31;30;
77699;PMS5003;66867;42.658;23.320;2023-06-01T03:28:00;28;26;
77699;PMS5003;66867;42.658;23.320;2023-06-01T03:29:00;28;28;
77699;PMS5003;66867;42.658;23.320;2023-06-01T03:30:00;28;27;
77699;PMS5003;66867;42.658;23.320;2023-06-01T03:31:00;33;31;
77699;PMS5003;66867;42.658;23.320;2023-06-01T03:32:00;26;26;
77699;PMS5003;66867;42.658;23.320;2023-06-01T03:33:00;35;33;
77699;PMS5003;66867;42.658;23.320;2023-06-01T03:34:01;30;29;
77699;PMS5003;66867;42.658;23.320;2023-06-01T03:35:00;32;30;
77699;PMS5003;66867;42.658;23.320;2023-06-01T03:36:00;28;26;
77699;PMS5003;66867;42.658;23.320;2023-06-01T03:37:00;31;30;
77699;PMS5003;66867;42.658;23.320;2023-06-01T03:38:00;27;26;
77699;PMS5003;66867;42.658;23.320;2023-06-01T03:39:00;32;30;
77699;PMS5003;66867;42.658;23.320;2023-06-01T03:40:01;33;30;
77699;PMS5003;66867;42.658;23.320;2023-06-01T03:41:00;36;31;
77699;PMS5003;66867;42.658;23.320;2023-06-01T03:42:00;29;29;
77699;PMS5003;66867;42.658;23.320;2023-06-01T03:43:00;31;28;
77699;PMS5003;66867;42.658;23.320;2023-06-01T03:44:00;29;28;
77699;PMS5003;66867;42.658;23.320;2023-06-01T03:45:00;26;26;
77699;PMS5003;66867;42.658;23.320;2023-06-01T03:46:00;33;32;
77699;PMS5003;66867;42.658;23.320;2023-06-01T03:47:00;29;29;
77699;PMS5003;66867;42.658;23.320;2023-06-01T03:48:00;28;27;
77699;PMS5003;66867;42.658;23.320;2023-06-01T03:49:00;32;30;
77699;PMS5003;66867;42.658;23.320;2023-06-01T03:50:01;28;28;
77699;PMS5003;66867;42.658;23.320;2023-06-01T03:51:00;31;30;
77699;PMS5003;66867;42.658;23.320;2023-06-01T03:52:00;36;32;
77699;PMS5003;66867;42.658;23.320;2023-06-01T03:53:00;29;29;
77699;PMS5003;66867;42.658;23.320;2023-06-01T03:54:00;32;30;
77699;PMS5003;66867;42.658;23.320;2023-06-01T03:55:03;29;29;
77699;PMS5003;66867;42.658;23.320;2023-06-01T03:56:00;31;29;
77699;PMS5003;66867;42.658;23.320;2023-06-01T03:57:00;31;29;
77699;PMS5003;66867;42.658;23.320;2023-06-01T03:58:00;29;28;
77699;PMS5003;66867;42.658;23.320;2023-06-01T03:59:01;30;30;
77699;PMS5003;66867;42.658;23.320;2023-06-01T04:00:01;29;28;
77699;PMS5003;66867;42.658;23.320;2023-06-01T04:01:00;33;31;
77699;PMS5003;66867;42.658;23.320;2023-06-01T04:02:00;30;30;
77699;PMS5003;66867;42.658;23.320;2023-06-01T04:03:00;34;31;
77699;PMS5003;66867;42.658;23.320;2023-06-01T04:04:00;28;27;
77699;PMS5003;66867;42.658;23.320;2023-06-01T04:05:00;33;31;
77699;PMS5003;66867;42.658;23.320;2023-06-01T04:06:00;31;30;
77699;PMS5003;66867;42.658;23.320;2023-06-01T04:07:00;29;28;
77699;PMS5003;66867;42.658;23.320;2023-06-01T04:08:00;31;30;
77699;PMS5003;66867;42.658;23.320;2023-06-01T04:09:01;37;33;
77699;PMS5003;66867;42.658;23.320;2023-06-01T04:10:00;30;29;
77699;PMS5003;66867;42.658;23.320;2023-06-01T04:11:00;29;29;
77699;PMS5003;66867;42.658;23.320;2023-06-01T04:12:00;33;31;
77699;PMS5003;66867;42.658;23.320;2023-06-01T04:13:00;31;29;
77699;PMS5003;66867;42.658;23.320;2023-06-01T04:14:00;32;30;
77699;PMS5003;66867;42.658;23.320;2023-06-01T04:15:00;34;30;
77699;PMS5003;66867;42.658;23.320;2023-06-01T04:16:00;27;27;
77699;PMS5003;66867;42.658;23.320;2023-06-01T04:17:00;29;29;
77699;PMS5003;66867;42.658;23.320;2023-06-01T04:18:00;32;30;
77699;PMS5003;66867;42.658;23.320;2023-06-01T04:19:00;35;33;
77699;PMS5003;66867;42.658;23.320;2023-06-01T04:20:00;34;31;
77699;PMS5003;66867;42.658;23.320;2023-06-01T04:21:00;32;31;
77699;PMS5003;66867;42.658;23.320;2023-06-01T04:22:00;31;29;
77699;PMS5003;66867;42.658;23.320;2023-06-01T04:23:00;31;30;
77699;PMS5003;66867;42.658;23.320;2023-06-01T04:24:00;37;33;
77699;PMS5003;66867;42.658;23.320;2023-06-01T04:25:00;32;30;
77699;PMS5003;66867;42.658;23.320;2023-06-01T04:26:00;34;31;
77699;PMS5003;66867;42.658;23.320;2023-06-01T04:27:00;29;28;
77699;PMS5003;66867;42.658;23.320;2023-06-01T04:28:00;40;35;
77699;PMS5003;66867;42.658;23.320;2023-06-01T04:29:00;37;33;
77699;PMS5003;66867;42.658;23.320;2023-06-01T04:30:00;31;30;
77699;PMS5003;66867;42.658;23.320;2023-06-01T04:31:00;33;31;
77699;PMS5003;66867;42.658;23.320;2023-06-01T04:32:00;29;29;
77699;PMS5003;66867;42.658;23.320;2023-06-01T04:33:00;36;33;
77699;PMS5003;66867;42.658;23.320;2023-06-01T04:34:00;32;31;
77699;PMS5003;66867;42.658;23.320;2023-06-01T04:35:01;35;31;
77699;PMS5003;66867;42.658;23.320;2023-06-01T04:36:00;32;31;
77699;PMS5003;66867;42.658;23.320;2023-06-01T04:37:00;34;32;
77699;PMS5003;66867;42.658;23.320;2023-06-01T04:38:00;38;34;
77699;PMS5003;66867;42.658;23.320;2023-06-01T04:39:00;35;33;
77699;PMS5003;66867;42.658;23.320;2023-06-01T04:40:02;36;33;
77699;PMS5003;66867;42.658;23.320;2023-06-01T04:41:00;33;30;
77699;PMS5003;66867;42.658;23.320;2023-06-01T04:42:00;36;33;
77699;PMS5003;66867;42.658;23.320;2023-06-01T04:43:00;36;32;
77699;PMS5003;66867;42.658;23.320;2023-06-01T04:44:01;41;36;
77699;PMS5003;66867;42.658;23.320;2023-06-01T04:45:00;30;30;
77699;PMS5003;66867;42.658;23.320;2023-06-01T04:46:00;36;33;
77699;PMS5003;66867;42.658;23.320;2023-06-01T04:47:00;37;34;
77699;PMS5003;66867;42.658;23.320;2023-06-01T04:48:00;35;33;
77699;PMS5003;66867;42.658;23.320;2023-06-01T04:49:00;34;32;
77699;PMS5003;66867;42.658;23.320;2023-06-01T04:50:00;37;34;
77699;PMS5003;66867;42.658;23.320;2023-06-01T04:51:00;36;32;
77699;PMS5003;66867;42.658;23.320;2023-06-01T04:52:00;40;35;
77699;PMS5003;66867;42.658;23.320;2023-06-01T04:53:00;37;34;
77699;PMS5003;66867;42.658;23.320;2023-06-01T04:54:00;43;36;
77699;PMS5003;66867;42.658;23.320;2023-06-01T04:55:00;35;33;
77699;PMS5003;66867;42.658;23.320;2023-06-01T04:56:00;37;33;
77699;PMS5003;66867;42.658;23.320;2023-06-01T04:57:00;38;34;
77699;PMS5003;66867;42.658;23.320;2023-06-01T04:58:00;36;33;
77699;PMS5003;66867;42.658;23.320;2023-06-01T04:59:00;34;32;
77699;PMS5003;66867;42.658;23.320;2023-06-01T05:00:00;36;32;
77699;PMS5003;66867;42.658;23.320;2023-06-01T05:01:00;37;34;
77699;PMS5003;66867;42.658;23.320;2023-06-01T05:02:00;33;32;
77699;PMS5003;66867;42.658;23.320;2023-06-01T05:03:00;34;32;
77699;PMS5003;66867;42.658;23.320;2023-06-01T05:04:00;37;33;
77699;PMS5003;66867;42.658;23.320;2023-06-01T05:05:00;34;32;
77699;PMS5003;66867;42.658;23.320;2023-06-01T05:06:00;38;33;
77699;PMS5003;66867;42.658;23.320;2023-06-01T05:07:00;40;35;
77699;PMS5003;66867;42.658;23.320;2023-06-01T05:08:00;36;33;
77699;PMS5003;66867;42.658;23.320;2023-06-01T05:09:00;36;33;
77699;PMS5003;66867;42.658;23.320;2023-06-01T05:10:00;36;33;
77699;PMS5003;66867;42.658;23.320;2023-06-01T05:17:00;37;33;
77699;PMS5003;66867;42.658;23.320;2023-06-01T05:18:00;36;33;
77699;PMS5003;66867;42.658;23.320;2023-06-01T05:19:00;35;32;
77699;PMS5003;66867;42.658;23.320;2023-06-01T05:20:00;35;33;
77699;PMS5003;66867;42.658;23.320;2023-06-01T05:21:00;39;35;
77699;PMS5003;66867;42.658;23.320;2023-06-01T05:22:00;37;33;
77699;PMS5003;66867;42.658;23.320;2023-06-01T05:23:00;38;34;
77699;PMS5003;66867;42.658;23.320;2023-06-01T05:24:00;38;35;
77699;PMS5003;66867;42.658;23.320;2023-06-01T05:25:00;34;32;
77699;PMS5003;66867;42.658;23.320;2023-06-01T05:26:00;37;34;
77699;PMS5003;66867;42.658;23.320;2023-06-01T05:27:00;36;33;
77699;PMS5003;66867;42.658;23.320;2023-06-01T05:28:00;36;33;
77699;PMS5003;66867;42.658;23.320;2023-06-01T05:29:00;37;34;
77699;PMS5003;66867;42.658;23.320;2023-06-01T05:30:00;35;32;
77699;PMS5003;66867;42.658;23.320;2023-06-01T05:31:00;38;35;
77699;PMS5003;66867;42.658;23.320;2023-06-01T05:32:00;42;34;
77699;PMS5003;66867;42.658;23.320;2023-06-01T05:33:00;41;34;
77699;PMS5003;66867;42.658;23.320;2023-06-01T05:34:00;45;37;
77699;PMS5003;66867;42.658;23.320;2023-06-01T05:35:00;45;38;
77699;PMS5003;66867;42.658;23.320;2023-06-01T05:36:00;43;37;
77699;PMS5003;66867;42.658;23.320;2023-06-01T05:37:01;46;39;
77699;PMS5003;66867;42.658;23.320;2023-06-01T05:38:00;44;38;
77699;PMS5003;66867;42.658;23.320;2023-06-01T05:39:00;47;39;
77699;PMS5003;66867;42.658;23.320;2023-06-01T05:40:00;39;35;
77699;PMS5003;66867;42.658;23.320;2023-06-01T05:41:00;45;39;
77699;PMS5003;66867;42.658;23.320;2023-06-01T05:42:00;47;39;
77699;PMS5003;66867;42.658;23.320;2023-06-01T05:43:00;45;38;
77699;PMS5003;66867;42.658;23.320;2023-06-01T05:44:00;43;37;
77699;PMS5003;66867;42.658;23.320;2023-06-01T05:45:00;46;38;
77699;PMS5003;66867;42.658;23.320;2023-06-01T05:46:00;45;39;
77699;PMS5003;66867;42.658;23.320;2023-06-01T05:47:00;39;34;
77699;PMS5003;66867;42.658;23.320;2023-06-01T05:48:01;37;33;
77699;PMS5003;66867;42.658;23.320;2023-06-01T05:49:00;40;35;
77699;PMS5003;66867;42.658;23.320;2023-06-01T05:50:00;46;39;
77699;PMS5003;66867;42.658;23.320;2023-06-01T05:51:00;44;36;
77699;PMS5003;66867;42.658;23.320;2023-06-01T05:52:00;45;38;
77699;PMS5003;66867;42.658;23.320;2023-06-01T05:53:00;35;32;
77699;PMS5003;66867;42.658;23.320;2023-06-01T05:54:00;38;35;
77699;PMS5003;66867;42.658;23.320;2023-06-01T05:55:00;40;35;
77699;PMS5003;66867;42.658;23.320;2023-06-01T05:56:00;40;35;
77699;PMS5003;66867;42.658;23.320;2023-06-01T05:57:00;36;33;
77699;PMS5003;66867;42.658;23.320;2023-06-01T05:58:00;38;35;
77699;PMS5003;66867;42.658;23.320;2023-06-01T05:59:00;42;36;
77699;PMS5003;66867;42.658;23.320;2023-06-01T06:00:00;41;36;
77699;PMS5003;66867;42.658;23.320;2023-06-01T06:01:00;40;35;
77699;PMS5003;66867;42.658;23.320;2023-06-01T06:02:01;38;34;
77699;PMS5003;66867;42.658;23.320;2023-06-01T06:03:00;41;35;
77699;PMS5003;66867;42.658;23.320;2023-06-01T06:04:00;37;33;
77699;PMS5003;66867;42.658;23.320;2023-06-01T06:05:00;38;33;
77699;PMS5003;66867;42.658;23.320;2023-06-01T06:06:00;34;32;
77699;PMS5003;66867;42.658;23.320;2023-06-01T06:07:00;40;36;
77699;PMS5003;66867;42.658;23.320;2023-06-01T06:08:00;43;37;
77699;PMS5003;66867;42.658;23.320;2023-06-01T06:09:00;37;33;
77699;PMS5003;66867;42.658;23.320;2023-06-01T06:10:00;42;36;
77699;PMS5003;66867;42.658;23.320;2023-06-01T06:11:00;41;36;
77699;PMS5003;66867;42.658;23.320;2023-06-01T06:12:00;44;37;
77699;PMS5003;66867;42.658;23.320;2023-06-01T06:13:00;40;35;
77699;PMS5003;66867;42.658;23.320;2023-06-01T06:14:00;41;35;
77699;PMS5003;66867;42.658;23.320;2023-06-01T06:15:00;39;35;
77699;PMS5003;66867;42.658;23.320;2023-06-01T06:16:00;42;37;
77699;PMS5003;66867;42.658;23.320;2023-06-01T06:17:00;44;38;
77699;PMS5003;66867;42.658;23.320;2023-06-01T06:18:00;47;38;
77699;PMS5003;66867;42.658;23.320;2023-06-01T06:19:00;45;38;
77699;PMS5003;66867;42.658;23.320;2023-06-01T06:20:00;49;41;
77699;PMS5003;66867;42.658;23.320;2023-06-01T06:21:00;42;36;
77699;PMS5003;66867;42.658;23.320;2023-06-01T06:22:00;37;34;
77699;PMS5003;66867;42.658;23.320;2023-06-01T06:23:00;41;36;
77699;PMS5003;66867;42.658;23.320;2023-06-01T06:24:00;39;34;
77699;PMS5003;66867;42.658;23.320;2023-06-01T06:25:00;42;37;
77699;PMS5003;66867;42.658;23.320;2023-06-01T06:26:00;42;35;
77699;PMS5003;66867;42.658;23.320;2023-06-01T06:27:00;45;38;
77699;PMS5003;66867;42.658;23.320;2023-06-01T06:28:00;46;37;
77699;PMS5003;66867;42.658;23.320;2023-06-01T06:29:00;41;36;
77699;PMS5003;66867;42.658;23.320;2023-06-01T06:30:00;41;36;
77699;PMS5003;66867;42.658;23.320;2023-06-01T06:31:00;41;35;
77699;PMS5003;66867;42.658;23.320;2023-06-01T06:32:00;41;35;
77699;PMS5003;66867;42.658;23.320;2023-06-01T06:33:00;45;38;
77699;PMS5003;66867;42.658;23.320;2023-06-01T06:34:00;45;38;
77699;PMS5003;66867;42.658;23.320;2023-06-01T06:37:02;41;35;
77699;PMS5003;66867;42.658;23.320;2023-06-01T06:38:00;46;38;
77699;PMS5003;66867;42.658;23.320;2023-06-01T06:39:00;45;39;
77699;PMS5003;66867;42.658;23.320;2023-06-01T06:40:00;43;37;
77699;PMS5003;66867;42.658;23.320;2023-06-01T06:41:00;46;38;
77699;PMS5003;66867;42.658;23.320;2023-06-01T06:42:00;46;39;
77699;PMS5003;66867;42.658;23.320;2023-06-01T06:43:00;45;39;
77699;PMS5003;66867;42.658;23.320;2023-06-01T06:44:00;45;38;
77699;PMS5003;66867;42.658;23.320;2023-06-01T06:45:00;47;39;
77699;PMS5003;66867;42.658;23.320;2023-06-01T06:46:00;44;38;
77699;PMS5003;66867;42.658;23.320;2023-06-01T06:47:00;45;39;
77699;PMS5003;66867;42.658;23.320;2023-06-01T06:48:00;41;36;
77699;PMS5003;66867;42.658;23.320;2023-06-01T06:49:00;47;40;